Time;durP1;ratioP1;P1;durP2;ratioP2;P2;SDS_P1;SDS_P2;PMS_P1;PMS_P2;Temp;Humidity;BMP_temperature;BMP_pressure;BME280_temperature;BME280_humidity;BME280_pressure;Samples;Min_cycle;Max_cycle;Signal;HPM_P1;HPM_P2
2022/05/18 00:01:59;;;;;;;3.22;2.90;;;16.20;72.60;;;;;;5052140;28;20597;-68
2022/05/18 00:04:26;;;;;;;3.85;2.85;;;16.10;72.60;;;;;;5049946;28;20079;-67
2022/05/18 00:06:51;;;;;;;6.85;2.80;;;16.10;72.60;;;;;;5054959;28;20052;-68
2022/05/18 00:09:17;;;;;;;3.80;2.67;;;16.10;72.50;;;;;;5048184;28;20087;-68
2022/05/18 00:11:43;;;;;;;3.05;2.67;;;16.00;72.60;;;;;;5046469;28;20072;-68
2022/05/18 00:14:09;;;;;;;3.13;2.78;;;16.00;72.60;;;;;;5048587;28;20610;-67
2022/05/18 00:16:35;;;;;;;3.15;2.38;;;15.90;73.50;;;;;;5051219;28;20041;-67
2022/05/18 00:19:01;;;;;;;3.63;2.80;;;15.90;72.80;;;;;;5054342;28;20029;-68
2022/05/18 00:21:27;;;;;;;2.60;2.40;;;15.90;72.80;;;;;;5051543;28;20033;-68
2022/05/18 00:23:53;;;;;;;2.75;2.55;;;15.90;72.90;;;;;;5050972;28;20033;-68
2022/05/18 00:26:18;;;;;;;3.25;2.88;;;15.80;72.90;;;;;;5050113;28;20039;-68
2022/05/18 00:28:44;;;;;;;4.60;3.00;;;15.70;72.90;;;;;;5049203;28;20519;-67
2022/05/18 00:31:13;;;;;;;3.65;3.35;;;15.80;73.20;;;;;;5051707;28;20028;-68
2022/05/18 00:33:39;;;;;;;3.42;3.08;;;15.70;73.30;;;;;;5048729;28;20077;-68
2022/05/18 00:36:04;;;;;;;3.95;3.22;;;15.70;73.10;;;;;;5052483;28;20287;-68
2022/05/18 00:38:30;;;;;;;7.78;3.42;;;15.70;73.30;;;;;;5052624;28;20033;-68
2022/05/18 00:40:56;;;;;;;3.40;3.10;;;15.60;73.20;;;;;;5051683;28;20639;-68
2022/05/18 00:43:31;;;;;;;5.55;3.47;;;15.60;73.20;;;;;;5049015;28;21010;-68
2022/05/18 00:46:05;;;;;;;3.75;3.00;;;15.60;74.00;;;;;;5048048;28;20025;-68
2022/05/18 00:48:31;;;;;;;3.17;2.97;;;15.60;73.90;;;;;;5051088;28;20036;-68
2022/05/18 00:51:00;;;;;;;3.05;2.80;;;15.50;73.30;;;;;;5050990;28;20033;-66
2022/05/18 00:53:30;;;;;;;3.08;2.58;;;15.50;73.70;;;;;;5051559;28;20042;-68
2022/05/18 00:56:00;;;;;;;4.00;2.95;;;15.50;73.90;;;;;;5050341;28;20040;-68
2022/05/18 00:58:53;;;;;;;4.07;2.58;;;15.40;73.80;;;;;;5052345;28;20051;-68
2022/05/18 01:01:19;;;;;;;4.57;3.00;;;15.40;74.70;;;;;;5050561;28;20036;-68
2022/05/18 01:03:48;;;;;;;4.78;3.00;;;15.40;73.70;;;;;;5050293;28;20044;-68
2022/05/18 01:06:19;;;;;;;4.57;2.90;;;15.30;74.00;;;;;;5050483;28;20033;-67
2022/05/18 01:09:03;;;;;;;4.68;3.38;;;15.30;74.10;;;;;;5052058;28;20037;-68
2022/05/18 01:11:31;;;;;;;4.38;3.63;;;15.30;75.10;;;;;;5049001;28;20144;-67
2022/05/18 01:13:57;;;;;;;5.05;4.20;;;15.20;74.00;;;;;;5049404;28;20033;-69
2022/05/18 01:16:25;;;;;;;4.65;4.07;;;15.20;74.10;;;;;;5048157;28;20107;-68
2022/05/18 01:18:52;;;;;;;4.20;3.78;;;15.20;74.40;;;;;;5049819;28;20037;-68
2022/05/18 01:21:17;;;;;;;4.78;3.38;;;15.20;74.40;;;;;;5048582;28;20033;-68
2022/05/18 01:24:03;;;;;;;4.03;3.58;;;15.10;74.30;;;;;;5051567;28;20033;-68
2022/05/18 01:26:47;;;;;;;3.13;2.83;;;15.20;75.20;;;;;;5048503;28;20115;-68
2022/05/18 01:29:15;;;;;;;3.22;2.85;;;15.10;75.10;;;;;;5066447;28;20063;-68
2022/05/18 01:31:57;;;;;;;3.13;2.85;;;15.10;74.30;;;;;;5050795;28;20120;-67
2022/05/18 01:34:27;;;;;;;3.10;2.80;;;15.10;74.90;;;;;;5048164;28;20037;-68
2022/05/18 01:36:52;;;;;;;3.25;3.05;;;15.00;74.50;;;;;;5052332;28;20033;-67
2022/05/18 01:39:50;;;;;;;6.53;2.88;;;15.10;74.30;;;;;;5053150;28;20029;-67
2022/05/18 01:42:36;;;;;;;3.15;2.90;;;15.00;74.90;;;;;;5049200;28;20048;-67
2022/05/18 01:45:03;;;;;;;3.22;3.00;;;15.00;74.50;;;;;;5049957;28;20086;-67
2022/05/18 01:47:36;;;;;;;3.17;2.78;;;14.90;74.30;;;;;;5050729;28;20523;-68
2022/05/18 01:50:06;;;;;;;3.88;3.00;;;14.90;75.20;;;;;;5049486;28;20033;-67
2022/05/18 01:52:32;;;;;;;3.47;3.17;;;14.90;74.90;;;;;;5048269;28;20039;-68
2022/05/18 01:54:58;;;;;;;3.53;3.22;;;14.80;74.70;;;;;;5049257;28;20040;-68
2022/05/18 01:57:24;;;;;;;4.13;3.22;;;14.70;74.90;;;;;;5048665;28;20548;-68
2022/05/18 01:59:50;;;;;;;4.05;3.55;;;14.70;75.10;;;;;;5049400;28;20041;-68
2022/05/18 02:02:15;;;;;;;5.00;3.58;;;14.70;75.30;;;;;;5049397;28;20051;-68
2022/05/18 02:04:42;;;;;;;4.95;3.25;;;14.70;75.40;;;;;;5051312;28;20045;-67
2022/05/18 02:07:08;;;;;;;3.70;3.20;;;14.60;75.30;;;;;;5048595;28;20025;-68
2022/05/18 02:09:34;;;;;;;3.65;3.13;;;14.70;75.40;;;;;;5052401;28;20029;-68
2022/05/18 02:11:59;;;;;;;4.03;3.30;;;14.60;75.40;;;;;;5045831;28;20043;-68
2022/05/18 02:14:26;;;;;;;3.95;3.30;;;14.60;75.20;;;;;;5049294;28;20118;-67
2022/05/18 02:16:52;;;;;;;4.30;3.90;;;14.60;75.20;;;;;;5050113;28;20037;-68
2022/05/18 02:19:18;;;;;;;3.97;3.63;;;14.60;75.30;;;;;;5048736;28;20039;-68
2022/05/18 02:21:44;;;;;;;5.85;3.95;;;14.60;75.40;;;;;;5051463;28;20368;-67
2022/05/18 02:24:10;;;;;;;3.97;3.67;;;14.50;75.50;;;;;;5050694;28;20043;-67
2022/05/18 02:26:36;;;;;;;4.10;3.72;;;14.50;75.70;;;;;;5048512;28;20048;-68
2022/05/18 02:29:03;;;;;;;4.72;4.28;;;14.50;75.80;;;;;;5052357;28;20408;-67
2022/05/18 02:31:29;;;;;;;3.95;3.65;;;14.50;76.00;;;;;;5049596;28;20400;-68
2022/05/18 02:33:54;;;;;;;4.95;4.22;;;14.40;75.80;;;;;;5050269;28;20033;-67
2022/05/18 02:36:20;;;;;;;4.55;4.15;;;14.40;75.80;;;;;;5048245;28;20056;-68
2022/05/18 02:38:45;;;;;;;6.07;4.55;;;14.40;75.90;;;;;;5051469;28;20086;-68
2022/05/18 02:41:11;;;;;;;4.20;3.75;;;14.40;75.90;;;;;;5050586;28;20044;-68
2022/05/18 02:43:38;;;;;;;5.40;4.30;;;14.40;76.00;;;;;;5050335;28;20033;-68
2022/05/18 02:46:08;;;;;;;4.25;3.85;;;14.30;76.10;;;;;;5049572;28;20036;-68
2022/05/18 02:48:34;;;;;;;5.10;4.38;;;14.30;76.30;;;;;;5049174;28;20029;-68
2022/05/18 02:51:00;;;;;;;4.88;4.03;;;14.30;76.30;;;;;;5050802;28;20037;-68
2022/05/18 02:53:27;;;;;;;4.35;3.95;;;14.30;76.30;;;;;;5046559;28;20580;-68
2022/05/18 02:56:08;;;;;;;6.03;4.30;;;14.20;76.30;;;;;;5050647;28;20383;-68
2022/05/18 02:58:33;;;;;;;4.65;4.00;;;14.20;76.30;;;;;;5049562;28;20033;-68
2022/05/18 03:01:00;;;;;;;8.02;4.50;;;14.20;76.30;;;;;;5050665;28;20543;-68
2022/05/18 03:03:27;;;;;;;5.78;4.32;;;14.20;76.30;;;;;;5049415;28;20306;-67
2022/05/18 03:05:52;;;;;;;8.52;4.25;;;14.10;76.30;;;;;;5050360;28;20384;-68
2022/05/18 03:08:18;;;;;;;5.45;4.60;;;14.10;76.30;;;;;;5047803;28;20039;-68
2022/05/18 03:10:43;;;;;;;5.22;4.30;;;14.10;76.40;;;;;;5051867;28;20046;-68
2022/05/18 03:13:10;;;;;;;5.57;4.15;;;14.00;76.40;;;;;;5050663;28;20033;-68
2022/05/18 03:15:35;;;;;;;8.75;4.10;;;14.00;76.40;;;;;;5052552;28;20031;-68
2022/05/18 03:18:01;;;;;;;5.97;4.18;;;14.00;76.40;;;;;;5054757;28;20020;-68
2022/05/18 03:25:55;;;;;;;4.67;4.13;;;14.00;76.50;;;;;;5051668;28;20052;-68
2022/05/18 03:28:21;;;;;;;5.40;4.60;;;13.90;76.40;;;;;;5052044;28;20275;-68
2022/05/18 03:30:46;;;;;;;6.25;4.45;;;14.00;76.50;;;;;;5051753;28;20060;-68
2022/05/18 03:33:12;;;;;;;4.28;3.88;;;14.00;76.40;;;;;;5050912;28;20021;-68
2022/05/18 03:35:38;;;;;;;7.80;4.85;;;14.00;76.30;;;;;;5051587;28;20033;-68
2022/05/18 03:38:05;;;;;;;4.35;3.95;;;14.00;76.30;;;;;;5054506;28;20044;-68
2022/05/18 03:40:37;;;;;;;4.30;3.90;;;13.90;76.20;;;;;;5051089;28;20036;-68
2022/05/18 03:43:03;;;;;;;6.50;4.70;;;13.90;76.30;;;;;;5052023;28;20041;-68
2022/05/18 03:45:30;;;;;;;6.57;4.82;;;13.90;76.30;;;;;;5051739;28;20518;-68
2022/05/18 03:47:56;;;;;;;4.97;4.55;;;13.90;76.40;;;;;;5053578;28;20427;-68
2022/05/18 03:50:22;;;;;;;5.70;4.72;;;13.80;76.50;;;;;;5052045;28;20037;-67
2022/05/18 03:52:48;;;;;;;7.72;5.00;;;13.80;76.70;;;;;;5049332;28;20040;-68
2022/05/18 03:55:14;;;;;;;6.53;4.85;;;13.80;77.20;;;;;;5052043;28;20041;-68
2022/05/18 03:57:40;;;;;;;7.22;4.70;;;13.70;77.30;;;;;;5053419;28;20039;-68
2022/05/18 04:00:06;;;;;;;7.32;4.82;;;13.70;77.30;;;;;;5053570;28;20040;-68
2022/05/18 04:02:32;;;;;;;5.60;4.82;;;13.70;77.50;;;;;;5050868;28;20097;-67
2022/05/18 04:04:59;;;;;;;6.40;4.70;;;13.60;77.50;;;;;;5053891;28;20111;-67
2022/05/18 04:07:25;;;;;;;5.03;4.53;;;13.60;77.70;;;;;;5049748;28;20488;-67
2022/05/18 04:09:50;;;;;;;5.30;4.80;;;13.60;77.80;;;;;;5050702;28;20523;-67
2022/05/18 04:12:16;;;;;;;4.97;4.53;;;13.60;77.90;;;;;;5046128;28;20036;-66
2022/05/18 04:14:42;;;;;;;6.03;4.60;;;13.60;78.00;;;;;;5050418;28;20110;-68
2022/05/18 04:17:07;;;;;;;6.57;4.63;;;13.60;78.00;;;;;;5051896;28;20045;-68
2022/05/18 04:19:33;;;;;;;5.55;4.50;;;13.60;78.00;;;;;;5049329;28;20148;-68
2022/05/18 04:21:59;;;;;;;4.75;4.28;;;13.60;78.00;;;;;;5050713;28;20089;-68
2022/05/18 04:24:24;;;;;;;11.30;4.63;;;13.70;78.00;;;;;;5049668;28;20519;-68
2022/05/18 04:26:50;;;;;;;7.93;4.78;;;13.70;77.90;;;;;;5052398;28;20375;-67
2022/05/18 04:29:16;;;;;;;5.60;5.00;;;13.70;78.00;;;;;;5052494;28;20040;-68
2022/05/18 04:31:41;;;;;;;6.57;4.80;;;13.70;78.10;;;;;;5051879;28;20507;-67
2022/05/18 04:34:07;;;;;;;7.30;4.95;;;13.70;78.20;;;;;;5049879;28;20029;-67
2022/05/18 04:36:33;;;;;;;7.85;5.05;;;13.70;78.30;;;;;;5047432;28;20079;-68
2022/05/18 04:38:58;;;;;;;6.88;5.20;;;13.70;78.60;;;;;;5048626;28;20033;-67
2022/05/18 04:41:24;;;;;;;6.75;5.25;;;13.70;78.80;;;;;;5051782;28;20025;-68
2022/05/18 04:43:49;;;;;;;5.70;5.10;;;13.70;78.90;;;;;;5052275;28;20053;-67
2022/05/18 04:46:15;;;;;;;8.13;5.80;;;13.70;79.10;;;;;;5054658;28;20051;-67
2022/05/18 04:48:41;;;;;;;7.13;5.97;;;13.70;79.30;;;;;;5054349;28;20032;-67
2022/05/18 04:51:07;;;;;;;6.03;5.43;;;13.70;79.30;;;;;;5055334;28;20036;-67
2022/05/18 04:53:34;;;;;;;6.40;5.70;;;13.80;79.60;;;;;;5050169;28;20226;-68
2022/05/18 04:56:00;;;;;;;8.25;5.72;;;13.80;79.60;;;;;;5050905;28;20044;-68
2022/05/18 04:58:26;;;;;;;10.30;5.80;;;13.80;80.40;;;;;;5054316;28;20033;-68
2022/05/18 05:01:04;;;;;;;7.00;6.30;;;13.90;79.80;;;;;;5054923;28;20041;-68
2022/05/18 05:03:30;;;;;;;11.13;5.80;;;13.90;80.80;;;;;;5055240;28;20106;-68
2022/05/18 05:05:55;;;;;;;7.50;5.72;;;13.90;80.00;;;;;;5053799;28;20463;-68
2022/05/18 05:08:21;;;;;;;8.35;6.10;;;14.00;80.20;;;;;;5054184;28;20036;-68
2022/05/18 05:10:47;;;;;;;5.80;5.20;;;14.10;80.40;;;;;;5051871;28;20036;-68
2022/05/18 05:13:13;;;;;;;9.32;5.68;;;14.10;80.50;;;;;;5051352;28;20408;-68
2022/05/18 05:15:38;;;;;;;8.77;5.90;;;14.20;80.80;;;;;;5052409;28;20029;-68
2022/05/18 05:18:05;;;;;;;8.63;5.30;;;14.20;80.80;;;;;;5055985;28;20025;-68
2022/05/18 05:20:31;;;;;;;11.75;6.22;;;14.30;81.00;;;;;;5054886;28;20665;-67
2022/05/18 05:22:56;;;;;;;7.45;5.93;;;14.40;81.20;;;;;;5052222;28;20033;-67
2022/05/18 05:25:22;;;;;;;9.10;6.55;;;14.50;81.40;;;;;;5053309;28;20097;-68
2022/05/18 05:27:47;;;;;;;8.93;7.35;;;14.60;81.70;;;;;;5053884;28;20608;-68
2022/05/18 05:30:14;;;;;;;7.47;6.70;;;14.70;81.90;;;;;;5054355;28;20032;-68
2022/05/18 05:32:41;;;;;;;7.57;6.50;;;14.80;81.90;;;;;;5052800;28;20029;-67
2022/05/18 05:35:09;;;;;;;7.30;6.60;;;14.90;81.80;;;;;;5053670;28;20048;-68
2022/05/18 05:37:34;;;;;;;7.15;6.45;;;15.00;81.60;;;;;;5054491;28;20580;-67
2022/05/18 05:40:00;;;;;;;8.32;6.95;;;15.10;81.20;;;;;;5051005;28;20032;-67
2022/05/18 05:42:26;;;;;;;9.45;7.45;;;15.30;81.20;;;;;;5052180;28;20033;-68
2022/05/18 05:44:52;;;;;;;8.57;6.70;;;15.40;81.00;;;;;;5052909;28;20036;-68
2022/05/18 05:47:18;;;;;;;8.25;7.00;;;15.50;81.40;;;;;;5054148;28;20075;-68
2022/05/18 05:49:44;;;;;;;8.30;6.93;;;15.60;81.10;;;;;;5050544;28;20435;-68
2022/05/18 05:52:11;;;;;;;8.00;7.20;;;15.70;81.10;;;;;;5052494;28;20393;-67
2022/05/18 05:54:36;;;;;;;8.80;7.70;;;15.80;81.00;;;;;;5052773;28;20033;-68
2022/05/18 05:57:04;;;;;;;12.27;7.85;;;15.90;80.60;;;;;;5053450;28;20029;-68
2022/05/18 05:59:35;;;;;;;9.75;8.05;;;16.10;80.00;;;;;;5054108;28;20502;-67
2022/05/18 06:02:03;;;;;;;9.65;7.60;;;16.20;79.80;;;;;;5054041;28;20510;-67
2022/05/18 06:04:31;;;;;;;9.73;6.60;;;16.20;79.50;;;;;;5053324;28;20143;-68
2022/05/18 06:06:57;;;;;;;10.48;7.28;;;16.30;79.20;;;;;;5052092;28;20033;-66
2022/05/18 06:09:22;;;;;;;7.63;6.70;;;16.40;78.70;;;;;;5052294;28;20055;-66
2022/05/18 06:11:50;;;;;;;7.40;6.63;;;16.50;78.50;;;;;;5048063;28;20400;-67
2022/05/18 06:14:16;;;;;;;10.57;7.25;;;16.60;78.20;;;;;;5050506;28;20311;-67
2022/05/18 06:16:42;;;;;;;8.20;6.60;;;16.70;78.00;;;;;;5052901;28;20041;-68
2022/05/18 06:19:08;;;;;;;8.02;6.82;;;16.80;77.80;;;;;;5052347;28;20492;-68
2022/05/18 06:21:34;;;;;;;7.40;6.57;;;16.90;77.70;;;;;;5053602;28;20065;-68
2022/05/18 06:24:00;;;;;;;7.85;6.50;;;16.90;77.50;;;;;;5053658;28;20037;-68
2022/05/18 06:26:26;;;;;;;7.63;6.82;;;17.00;77.40;;;;;;5051131;28;20036;-68
2022/05/18 06:28:53;;;;;;;7.30;6.40;;;17.10;77.40;;;;;;5052594;28;20029;-67
2022/05/18 06:31:18;;;;;;;7.47;6.72;;;17.20;77.20;;;;;;5054251;28;20025;-68
2022/05/18 06:33:44;;;;;;;10.18;6.68;;;17.20;77.20;;;;;;5055115;28;20055;-68
2022/05/18 06:36:10;;;;;;;8.30;7.15;;;17.30;77.00;;;;;;5066378;28;20111;-68
2022/05/18 06:38:35;;;;;;;8.43;7.07;;;17.40;77.10;;;;;;5051140;28;20546;-68
2022/05/18 06:43:45;;;;;;;9.77;6.97;;;17.50;77.20;;;;;;5053781;28;20119;-67
2022/05/18 06:46:11;;;;;;;8.00;7.20;;;17.60;76.80;;;;;;5057658;28;20793;-68
2022/05/18 06:48:39;;;;;;;10.55;7.35;;;17.70;76.70;;;;;;5056729;28;20106;-68
2022/05/18 06:51:06;;;;;;;8.93;6.45;;;17.80;76.00;;;;;;5055955;28;20165;-67
2022/05/18 06:53:32;;;;;;;8.27;6.85;;;17.90;75.60;;;;;;5055899;28;20111;-68
2022/05/18 06:55:57;;;;;;;8.35;7.05;;;17.90;75.50;;;;;;5055807;28;20163;-68
2022/05/18 06:58:23;;;;;;;8.38;6.28;;;18.00;75.30;;;;;;5055325;28;20029;-68
2022/05/18 07:00:48;;;;;;;8.48;7.50;;;18.10;75.30;;;;;;5057189;28;20095;-68
2022/05/18 07:03:15;;;;;;;8.20;6.90;;;18.20;75.70;;;;;;5057064;28;20086;-68
2022/05/18 07:05:40;;;;;;;7.72;6.50;;;18.20;74.50;;;;;;5056113;28;20538;-68
2022/05/18 07:08:07;;;;;;;10.23;6.70;;;18.30;74.10;;;;;;5057583;28;20033;-67
2022/05/18 07:10:32;;;;;;;9.63;7.15;;;18.40;74.00;;;;;;5058510;28;20029;-68
2022/05/18 07:12:58;;;;;;;8.27;6.88;;;18.40;74.00;;;;;;5057311;28;20036;-68
2022/05/18 07:15:23;;;;;;;8.15;6.68;;;18.50;74.00;;;;;;5055106;28;20214;-68
2022/05/18 07:17:49;;;;;;;6.82;6.22;;;18.60;73.90;;;;;;5056970;28;20174;-67
2022/05/18 07:20:15;;;;;;;7.68;6.30;;;18.70;73.50;;;;;;5053616;28;20033;-68
2022/05/18 07:22:41;;;;;;;9.55;6.82;;;18.80;73.20;;;;;;5056794;28;20048;-68
2022/05/18 07:25:07;;;;;;;7.60;6.85;;;18.90;73.20;;;;;;5055606;28;20044;-68
2022/05/18 07:27:32;;;;;;;9.60;7.22;;;19.00;73.10;;;;;;5052507;28;20029;-66
2022/05/18 07:29:58;;;;;;;8.43;7.20;;;19.10;73.00;;;;;;5054705;28;20048;-66
2022/05/18 07:32:24;;;;;;;8.70;7.03;;;19.10;72.80;;;;;;5055190;28;20055;-66
2022/05/18 07:34:49;;;;;;;8.27;7.32;;;19.30;72.40;;;;;;5055530;28;20163;-66
2022/05/18 07:37:16;;;;;;;8.60;7.70;;;19.30;72.60;;;;;;5054566;28;20033;-65
2022/05/18 07:39:43;;;;;;;10.73;7.25;;;19.40;72.50;;;;;;5056803;28;20123;-66
2022/05/18 07:42:09;;;;;;;9.15;7.20;;;19.50;72.40;;;;;;5053595;28;20028;-66
2022/05/18 07:44:36;;;;;;;8.68;7.53;;;19.60;72.50;;;;;;5054169;28;20058;-66
2022/05/18 07:47:03;;;;;;;8.95;7.45;;;19.60;72.50;;;;;;5055907;28;20025;-66
2022/05/18 07:49:33;;;;;;;8.60;7.45;;;19.70;72.50;;;;;;5053151;28;20033;-65
2022/05/18 07:51:59;;;;;;;9.20;7.03;;;19.80;72.30;;;;;;5062591;28;20519;-65
2022/05/18 07:54:24;;;;;;;10.68;7.30;;;19.90;72.30;;;;;;5053550;28;20037;-65
2022/05/18 07:56:50;;;;;;;11.65;7.55;;;20.00;72.00;;;;;;5055068;28;20190;-66
2022/05/18 07:59:15;;;;;;;8.65;7.30;;;20.10;71.60;;;;;;5053357;28;20040;-66
2022/05/18 08:01:42;;;;;;;8.95;6.97;;;20.20;71.40;;;;;;5054024;28;20041;-66
2022/05/18 08:04:08;;;;;;;7.22;6.13;;;20.30;71.50;;;;;;5053396;28;20109;-66
2022/05/18 08:06:33;;;;;;;8.18;6.63;;;20.40;70.90;;;;;;5057271;28;20183;-66
2022/05/18 08:08:59;;;;;;;7.60;6.80;;;20.50;70.70;;;;;;5056209;28;20103;-66
2022/05/18 08:16:54;;;;;;;5.68;4.95;;;20.80;70.20;;;;;;5055719;28;20098;-66
2022/05/18 08:19:20;;;;;;;8.75;5.40;;;20.90;70.20;;;;;;5056902;28;20496;-66
2022/05/18 08:21:47;;;;;;;6.63;5.68;;;21.00;69.50;;;;;;5054952;28;20040;-66
2022/05/18 08:24:13;;;;;;;7.55;5.30;;;21.20;69.00;;;;;;5054532;28;20327;-66
2022/05/18 08:26:41;;;;;;;6.00;5.30;;;21.30;69.60;;;;;;5054655;28;20033;-66
2022/05/18 08:29:07;;;;;;;7.85;5.03;;;21.40;69.00;;;;;;5053308;28;20032;-65
2022/05/18 08:31:33;;;;;;;8.27;5.32;;;21.60;69.20;;;;;;5054237;28;20111;-66
2022/05/18 08:33:59;;;;;;;7.30;4.88;;;21.80;68.60;;;;;;5054277;28;20045;-66
2022/05/18 08:36:26;;;;;;;6.43;5.63;;;21.90;68.20;;;;;;5054260;28;20484;-66
2022/05/18 08:38:53;;;;;;;5.30;4.72;;;22.00;68.50;;;;;;5054413;28;20033;-66
2022/05/18 08:41:22;;;;;;;9.40;4.88;;;22.10;67.10;;;;;;5055155;28;20033;-66
2022/05/18 08:43:52;;;;;;;5.28;4.10;;;22.20;66.80;;;;;;5054399;28;20037;-66
2022/05/18 08:46:39;;;;;;;5.47;4.95;;;22.40;66.80;;;;;;5052501;28;20036;-65
2022/05/18 08:49:23;;;;;;;6.25;5.00;;;22.50;65.20;;;;;;5054058;28;20016;-66
2022/05/18 08:51:54;;;;;;;4.85;3.88;;;22.70;65.20;;;;;;5055175;28;20033;-66
2022/05/18 08:54:46;;;;;;;4.35;3.63;;;22.90;65.30;;;;;;5053869;28;20029;-66
2022/05/18 08:57:25;;;;;;;3.67;3.38;;;23.00;63.20;;;;;;5050971;28;20375;-65
2022/05/18 08:59:58;;;;;;;5.18;3.90;;;23.20;63.60;;;;;;5054480;28;20090;-66
2022/05/18 09:02:32;;;;;;;4.00;3.63;;;23.30;62.60;;;;;;5054922;28;20036;-67
2022/05/18 09:05:05;;;;;;;4.13;3.73;;;23.50;62.70;;;;;;5053446;28;20036;-66
2022/05/18 09:07:38;;;;;;;4.13;3.40;;;23.60;60.20;;;;;;5054354;28;20044;-66
2022/05/18 09:10:13;;;;;;;3.75;3.15;;;23.70;59.30;;;;;;5053966;28;20090;-65
2022/05/18 09:12:51;;;;;;;3.78;3.45;;;23.80;60.60;;;;;;5054265;28;20736;-66
2022/05/18 09:15:22;;;;;;;3.72;3.42;;;24.00;59.80;;;;;;5056913;28;20033;-66
2022/05/18 09:18:01;;;;;;;3.70;2.83;;;24.10;59.30;;;;;;5056970;28;20083;-66
2022/05/18 09:20:49;;;;;;;3.67;3.38;;;24.20;59.20;;;;;;5056752;28;20033;-66
2022/05/18 09:23:36;;;;;;;4.32;3.13;;;24.40;58.80;;;;;;5055876;28;20420;-66
2022/05/18 09:26:29;;;;;;;3.20;2.90;;;24.50;57.90;;;;;;5052332;28;20036;-67
2022/05/18 09:28:57;;;;;;;3.00;2.10;;;24.70;56.90;;;;;;5053799;28;20029;-66
2022/05/18 09:31:44;;;;;;;2.75;2.53;;;24.70;56.10;;;;;;5052028;28;20112;-66
2022/05/18 09:34:48;;;;;;;3.42;2.78;;;24.90;56.20;;;;;;5053402;28;20029;-66
2022/05/18 09:37:25;;;;;;;3.95;2.50;;;25.00;55.80;;;;;;5052127;28;20032;-66
2022/05/18 09:40:23;;;;;;;3.55;2.40;;;25.10;55.40;;;;;;5053894;28;20538;-66
2022/05/18 09:42:58;;;;;;;2.63;2.42;;;25.30;54.90;;;;;;5054838;28;20032;-67
2022/05/18 09:45:29;;;;;;;4.45;2.25;;;25.40;54.80;;;;;;5053276;28;20064;-66
2022/05/18 09:48:07;;;;;;;2.97;2.30;;;25.50;54.90;;;;;;5050965;28;20091;-64
2022/05/18 09:50:37;;;;;;;3.55;2.33;;;25.60;54.80;;;;;;5052963;28;20037;-66
2022/05/18 09:53:03;;;;;;;5.40;2.70;;;25.60;54.50;;;;;;5053480;28;20406;-67
2022/05/18 09:55:29;;;;;;;3.75;2.40;;;25.70;54.40;;;;;;5053864;28;20028;-67
2022/05/18 09:58:00;;;;;;;2.67;2.30;;;25.80;53.50;;;;;;5054724;28;20116;-66
2022/05/18 10:00:28;;;;;;;2.60;2.40;;;25.90;53.20;;;;;;5054931;28;20052;-66
2022/05/18 10:08:33;;;;;;;5.47;2.25;;;26.10;52.50;;;;;;5055841;28;20044;-67
2022/05/18 10:11:06;;;;;;;2.88;2.10;;;26.20;52.40;;;;;;5050427;28;20047;-66
2022/05/18 10:13:35;;;;;;;2.22;1.85;;;26.30;51.60;;;;;;5050594;28;20037;-67
2022/05/18 10:16:39;;;;;;;2.10;1.90;;;26.30;52.60;;;;;;5053210;28;20040;-66
2022/05/18 10:19:06;;;;;;;2.35;1.98;;;26.40;50.20;;;;;;5056116;28;20518;-66
2022/05/18 10:21:41;;;;;;;2.45;2.05;;;26.50;51.90;;;;;;5058521;28;20044;-66
2022/05/18 10:24:22;;;;;;;2.40;2.20;;;26.50;50.40;;;;;;5057948;28;20031;-66
2022/05/18 10:27:16;;;;;;;2.42;1.92;;;26.60;50.60;;;;;;5056040;28;20029;-67
2022/05/18 10:29:50;;;;;;;3.08;1.77;;;26.60;49.70;;;;;;5059232;28;20082;-67
2022/05/18 10:32:21;;;;;;;2.10;1.90;;;26.70;49.30;;;;;;5056864;28;20106;-66
2022/05/18 10:34:50;;;;;;;2.22;2.03;;;26.70;50.00;;;;;;5053982;28;20046;-66
2022/05/18 10:37:27;;;;;;;2.08;1.92;;;26.70;50.20;;;;;;5057404;28;20108;-67
2022/05/18 10:39:59;;;;;;;2.75;1.80;;;26.80;49.00;;;;;;5057922;28;20090;-64
2022/05/18 10:42:31;;;;;;;2.20;2.00;;;26.80;49.70;;;;;;5058275;28;20348;-67
2022/05/18 10:45:00;;;;;;;3.75;2.00;;;26.80;49.20;;;;;;5059139;28;20057;-66
2022/05/18 10:47:38;;;;;;;3.47;2.00;;;26.90;49.30;;;;;;5057302;28;20120;-66
2022/05/18 10:50:23;;;;;;;2.28;1.85;;;26.90;48.10;;;;;;5054360;28;20048;-66
2022/05/18 10:52:49;;;;;;;;;;;26.90;48.70;;;;;;5056294;28;20036;-66
2022/05/18 10:55:17;;;;;;;2.92;1.58;;;27.00;50.10;;;;;;5055920;28;19912;-66
2022/05/18 10:58:00;;;;;;;2.38;1.85;;;27.00;49.10;;;;;;5057914;28;20073;-66
2022/05/18 11:00:39;;;;;;;1.65;1.50;;;27.00;47.50;;;;;;5056282;28;20035;-66
2022/05/18 11:03:20;;;;;;;1.52;1.42;;;27.00;47.50;;;;;;5059172;28;20067;-66
2022/05/18 11:05:52;;;;;;;3.05;1.90;;;27.00;48.10;;;;;;5055632;28;20028;-66
2022/05/18 11:08:20;;;;;;;2.10;1.90;;;27.00;47.60;;;;;;5054814;28;20032;-66
2022/05/18 11:11:13;;;;;;;1.95;1.65;;;27.00;47.70;;;;;;5055509;28;20449;-63
2022/05/18 11:13:41;;;;;;;1.90;1.45;;;27.10;47.40;;;;;;5057474;28;20332;-66
2022/05/18 11:16:23;;;;;;;2.17;1.63;;;27.10;47.80;;;;;;5055249;28;20545;-66
2022/05/18 11:18:48;;;;;;;3.45;1.42;;;27.10;46.90;;;;;;5056565;28;20035;-66
2022/05/18 11:21:32;;;;;;;2.25;1.52;;;27.10;46.90;;;;;;5056620;28;20127;-66
2022/05/18 11:24:30;;;;;;;2.80;1.30;;;27.10;46.00;;;;;;5055997;28;20044;-66
2022/05/18 11:27:22;;;;;;;1.55;1.40;;;27.10;46.50;;;;;;5055684;28;20029;-66
2022/05/18 11:30:13;;;;;;;2.20;1.38;;;27.10;46.40;;;;;;5055725;28;20033;-66
2022/05/18 11:32:53;;;;;;;3.10;1.23;;;27.10;46.50;;;;;;5056995;28;20079;-66
2022/05/18 11:35:53;;;;;;;1.70;1.27;;;27.20;46.50;;;;;;5052777;28;20039;-66
2022/05/18 11:38:30;;;;;;;1.83;1.33;;;27.20;46.10;;;;;;5054651;28;20085;-66
2022/05/18 11:41:08;;;;;;;1.73;1.40;;;27.30;45.70;;;;;;5057220;28;20059;-66
2022/05/18 11:43:51;;;;;;;4.15;1.40;;;27.30;45.50;;;;;;5055561;28;20112;-66
2022/05/18 11:46:32;;;;;;;2.20;1.70;;;27.30;45.90;;;;;;5054126;28;20400;-66
2022/05/18 11:49:10;;;;;;;1.40;1.30;;;27.40;45.20;;;;;;5054609;28;20450;-66
2022/05/18 11:52:02;;;;;;;1.50;1.40;;;27.40;45.90;;;;;;5054343;28;20035;-66
2022/05/18 11:54:30;;;;;;;3.42;1.30;;;27.40;46.90;;;;;;5053200;28;20033;-66
2022/05/18 11:57:11;;;;;;;1.30;1.17;;;27.50;45.60;;;;;;5055030;28;20473;-66
2022/05/18 12:00:07;;;;;;;3.30;1.30;;;27.50;44.80;;;;;;5056653;28;20407;-66
2022/05/18 12:02:51;;;;;;;2.25;1.42;;;27.60;44.20;;;;;;5056186;28;20569;-67
2022/05/18 12:05:55;;;;;;;2.88;1.30;;;27.60;45.10;;;;;;5053095;28;20044;-66
2022/05/18 12:08:29;;;;;;;1.80;1.23;;;27.60;45.30;;;;;;5055335;28;20123;-67
2022/05/18 12:11:16;;;;;;;3.50;1.35;;;27.60;44.80;;;;;;5055357;28;20453;-66
2022/05/18 12:13:57;;;;;;;1.90;1.50;;;27.70;44.30;;;;;;5057523;28;20032;-66
2022/05/18 12:16:33;;;;;;;3.20;1.60;;;27.70;44.00;;;;;;5057951;28;20533;-66
2022/05/18 12:19:22;;;;;;;1.50;1.40;;;27.70;44.10;;;;;;5058124;28;20032;-66
2022/05/18 12:22:11;;;;;;;3.35;1.40;;;27.70;43.30;;;;;;5056880;28;20037;-66
2022/05/18 12:24:39;;;;;;;1.27;1.17;;;27.70;43.90;;;;;;5057496;28;20071;-66
2022/05/18 12:27:06;;;;;;;4.25;1.80;;;27.70;44.30;;;;;;5057850;28;20565;-67
2022/05/18 12:29:33;;;;;;;5.38;1.67;;;27.70;44.60;;;;;;5057760;28;20692;-66
2022/05/18 12:32:00;;;;;;;2.47;1.48;;;27.70;44.20;;;;;;5058772;28;20174;-66
2022/05/18 12:34:34;;;;;;;2.47;1.50;;;27.80;44.60;;;;;;5055755;28;20025;-67
2022/05/18 12:37:15;;;;;;;2.13;1.23;;;27.70;44.10;;;;;;5057326;28;20037;-66
2022/05/18 12:39:45;;;;;;;1.65;1.55;;;27.80;43.60;;;;;;5058111;28;20041;-66
2022/05/18 12:42:19;;;;;;;1.45;1.35;;;27.80;44.50;;;;;;5058205;28;20438;-67
2022/05/18 12:44:57;;;;;;;2.85;1.50;;;27.80;44.40;;;;;;5057921;28;20068;-66
2022/05/18 12:47:46;;;;;;;1.83;1.50;;;27.80;44.30;;;;;;5058637;28;20109;-66
2022/05/18 12:50:29;;;;;;;1.55;1.10;;;27.90;44.10;;;;;;5057572;28;20033;-66
2022/05/18 12:53:11;;;;;;;2.40;1.33;;;27.90;43.20;;;;;;5057278;28;20033;-67
2022/05/18 12:55:44;;;;;;;3.13;1.50;;;27.90;42.00;;;;;;5057154;28;20048;-66
2022/05/18 12:58:10;;;;;;;1.67;1.25;;;27.90;43.20;;;;;;5057738;28;20086;-66
2022/05/18 13:00:45;;;;;;;2.42;1.30;;;27.90;43.50;;;;;;5056686;28;20037;-66
2022/05/18 13:03:10;;;;;;;1.60;1.50;;;27.90;43.40;;;;;;5054010;28;20033;-66
2022/05/18 13:05:40;;;;;;;2.03;1.42;;;27.90;44.00;;;;;;5053293;28;20044;-65
2022/05/18 13:08:15;;;;;;;2.08;1.50;;;28.00;43.40;;;;;;5053435;28;20507;-66
2022/05/18 13:11:00;;;;;;;1.52;1.27;;;28.00;43.70;;;;;;5049600;28;20134;-66
2022/05/18 13:13:26;;;;;;;1.30;1.20;;;28.00;43.20;;;;;;5051325;28;20130;-66
2022/05/18 13:15:59;;;;;;;1.77;1.30;;;28.00;43.00;;;;;;5056418;28;20492;-67
2022/05/18 13:18:36;;;;;;;2.58;1.23;;;28.10;43.10;;;;;;5052765;28;20025;-66
2022/05/18 13:21:08;;;;;;;2.65;1.42;;;28.10;42.80;;;;;;5053482;28;20061;-66
2022/05/18 13:23:50;;;;;;;1.67;1.58;;;28.10;42.30;;;;;;5052816;28;20061;-66